Pagrindinis puslapis
METAR-TAF:

METAR-TAF

Oro uostai :

Gambell, Aliaska, Jungtinės Amerikos Valstijos

platuma: 63-46N, ilguma: 171-44W, Aukštis: 8 m

Dabartinis oras

Ataskaita buvo paskelbta 56 minutes, ne 05:56 UTC
Vėjas 11 kt iš Šiaurės Rytų
Temperatūra -18°C
Drėgmė 77%
Slėgis 1019 hPa
Matomumas: 16.1 km
Giedras dangus

METAR: PAGM 280556Z AUTO 04011KT 10SM CLR M18/M21 A3008 RMK AO2 SLP195 T11781206 11156 21178 53010 FZRANO

Laikas: 21:52 (06:52 UTC)


TAF: trūkstamas

Orai ataskaitas ir orų prognozės (METAR, TAF).

turimą stotys yra geltonos ir raudonos taškus žemėlapyje.

Perkelti pele per norėdami pamatyti stoties vardą.

Tada spustelėkite, norėdami matyti oro stebėjimo ir prognozės.

Norėdami pakeisti žemėlapį: spustelėkite ant žalios mygtukų su juodo kryžiaus žemyn,; žalią mygtuką su brūkšneliu, jei norite nutolinti; arba žalių rodyklių gretimoms žemėlapius.


METAR-TAF: